Time;durP1;ratioP1;P1;durP2;ratioP2;P2;SDS_P1;SDS_P2;PMS_P1;PMS_P2;Temp;Humidity;BMP_temperature;BMP_pressure;BME280_temperature;BME280_humidity;BME280_pressure;Samples;Min_cycle;Max_cycle;Signal;HPM_P1;HPM_P2
2022/03/28 00:01:44;;;;;;;;;;;6.30;99.90;;;4.59;98.83;102255.69;2569372;30;139092;-41
2022/03/28 00:04:12;;;;;;;;;;;6.20;99.90;;;4.55;98.68;102248.84;2568863;30;137622;-41
2022/03/28 00:06:39;;;;;;;;;;;6.10;99.90;;;4.54;99.57;102247.13;2570541;30;136812;-41
2022/03/28 00:09:07;;;;;;;;;;;6.20;99.90;;;4.53;100.00;102245.41;2569027;30;138135;-41
2022/03/28 00:11:34;;;;;;;;;;;6.10;99.90;;;4.51;100.00;102244.69;2570665;30;138275;-42
2022/03/28 00:14:03;;;;;;;;;;;6.10;99.90;;;4.48;99.60;102248.53;2571108;30;137323;-41
2022/03/28 00:16:30;;;;;;;;;;;6.10;99.90;;;4.50;100.00;102248.38;2569036;30;138699;-41
2022/03/28 00:18:58;;;;;;;;;;;6.10;99.90;;;4.47;100.00;102241.41;2570109;30;136726;-41
2022/03/28 00:21:25;;;;;;;;;;;6.10;99.90;;;4.43;100.00;102238.13;2569535;30;138300;-41
2022/03/28 00:23:53;;;;;;;;;;;6.00;99.90;;;4.39;100.00;102233.16;2569901;30;137142;-42
2022/03/28 00:26:20;;;;;;;;;;;6.00;99.90;;;4.34;100.00;102230.84;2569846;30;138238;-41
2022/03/28 00:28:48;;;;;;;;;;;6.00;99.90;;;4.36;100.00;102227.97;2568915;30;137191;-41
2022/03/28 00:31:16;;;;;;;;;;;5.90;99.90;;;4.33;100.00;102223.72;2569845;30;137355;-41
2022/03/28 00:33:48;;;;;;;;;;;5.90;99.90;;;4.28;100.00;102221.44;2568840;30;137471;-41
2022/03/28 00:36:15;;;;;;;;;;;5.90;99.90;;;4.25;100.00;102218.16;2569845;30;137908;-41
2022/03/28 00:38:43;;;;;;;;;;;5.90;99.90;;;4.24;100.00;102213.72;2570118;30;137240;-41
2022/03/28 00:41:10;;;;;;;;;;;5.80;99.90;;;4.22;100.00;102216.56;2568697;30;138176;-41
2022/03/28 00:44:05;;;;;;;;;;;5.80;99.90;;;4.24;100.00;102213.72;2570476;30;137233;-42
2022/03/28 00:46:34;;;;;;;;;;;5.90;99.90;;;4.21;100.00;102214.88;2568223;30;138491;-41
2022/03/28 00:49:02;;;;;;;;;;;5.80;99.90;;;4.20;100.00;102210.47;2568296;30;137010;-42
2022/03/28 00:51:34;;;;;;;;;;;5.80;99.90;;;4.16;100.00;102199.06;2568442;30;139346;-41
2022/03/28 00:54:01;;;;;;;;;;;5.80;99.90;;;4.13;100.00;102193.09;2570325;30;137173;-41
2022/03/28 00:56:29;;;;;;;;;;;5.80;99.90;;;4.16;100.00;102201.75;2569553;30;138359;-42
2022/03/28 00:58:58;;;;;;;;;;;5.80;99.90;;;4.17;100.00;102192.66;2567881;30;137233;-41
2022/03/28 01:01:26;;;;;;;;;;;5.80;99.90;;;4.16;100.00;102190.13;2566636;30;138641;-41
2022/03/28 01:03:54;;;;;;;;;;;5.80;99.90;;;4.11;100.00;102195.91;2568430;30;136947;-41
2022/03/28 01:06:23;;;;;;;;;;;5.70;99.90;;;4.06;100.00;102192.78;2570182;30;138204;-41
2022/03/28 01:08:50;;;;;;;;;;;5.70;99.90;;;4.02;100.00;102197.56;2568688;30;136889;-40
2022/03/28 01:11:18;;;;;;;;;;;5.60;99.90;;;4.01;100.00;102189.63;2568269;30;138461;-41
2022/03/28 01:13:46;;;;;;;;;;;5.60;99.90;;;3.95;100.00;102188.31;2567891;30;137895;-41
2022/03/28 01:16:13;;;;;;;;;;;5.60;99.90;;;3.86;100.00;102176.47;2572746;30;138329;-40
2022/03/28 01:18:47;;;;;;;;;;;5.50;99.90;;;3.86;100.00;102173.78;2571136;30;136967;-40
2022/03/28 01:21:18;;;;;;;;;;;5.50;99.90;;;3.79;100.00;102164.50;2571802;30;137219;-40
2022/03/28 01:23:45;;;;;;;;;;;5.40;99.90;;;3.76;100.00;102164.78;2571277;30;138943;-40
2022/03/28 01:26:15;;;;;;;;;;;5.40;99.90;;;3.75;100.00;102165.78;2570875;30;139031;-39
2022/03/28 01:28:43;;;;;;;;;;;5.40;99.90;;;3.77;100.00;102160.22;2570753;30;136776;-39
2022/03/28 01:31:10;;;;;;;;;;;5.40;99.90;;;3.75;100.00;102154.97;2569541;30;137122;-40
2022/03/28 01:33:38;;;;;;;;;;;5.30;99.90;;;3.74;100.00;102158.66;2571096;30;137149;-40
2022/03/28 01:36:05;;;;;;;;;;;5.40;99.90;;;3.70;100.00;102158.06;2569260;30;139251;-39
2022/03/28 01:38:32;;;;;;;;;;;5.30;99.90;;;3.67;100.00;102157.47;2570155;30;136942;-40
2022/03/28 01:41:00;;;;;;;;;;;5.30;99.90;;;3.65;100.00;102152.22;2569991;30;136746;-39
2022/03/28 01:43:27;;;;;;;;;;;5.30;99.90;;;3.65;100.00;102148.66;2569453;30;136998;-39
2022/03/28 01:45:55;;;;;;;;;;;5.30;99.90;;;3.65;100.00;102151.34;2571118;30;139192;-39
2022/03/28 01:48:23;;;;;;;;;;;5.30;99.90;;;3.61;100.00;102142.69;2569794;30;137709;-39
2022/03/28 01:50:50;;;;;;;;;;;5.20;99.90;;;3.57;100.00;102152.88;2570656;30;138197;-39
2022/03/28 01:53:17;;;;;;;;;;;5.20;99.90;;;3.55;100.00;102141.38;2569219;30;137235;-39
2022/03/28 01:55:45;;;;;;;;;;;5.20;99.90;;;3.54;100.00;102142.34;2567687;30;138448;-40
2022/03/28 01:58:12;;;;;;;;;;;5.20;99.90;;;3.49;100.00;102141.91;2570600;30;137254;-39
2022/03/28 02:00:40;;;;;;;;;;;5.10;99.90;;;3.46;100.00;102136.78;2569633;30;138307;-40
2022/03/28 02:03:09;;;;;;;;;;;5.10;99.90;;;3.43;100.00;102145.13;2568782;30;136983;-40
2022/03/28 02:05:36;;;;;;;;;;;5.10;99.90;;;3.40;100.00;102140.00;2570178;30;139191;-39
2022/03/28 02:08:04;;;;;;;;;;;5.00;99.90;;;3.37;100.00;102129.47;2569573;30;136720;-42
2022/03/28 02:10:31;;;;;;;;;;;5.00;99.90;;;3.33;100.00;102134.28;2569804;30;138234;-39
2022/03/28 02:12:59;;;;;;;;;;;5.00;99.90;;;3.17;100.00;102113.16;2568294;30;137079;-39
2022/03/28 02:15:26;;;;;;;;;;;4.90;99.90;;;3.28;100.00;102131.13;2570726;30;138218;-40
2022/03/28 02:17:54;;;;;;;;;;;4.90;99.90;;;3.28;100.00;102126.59;2566035;30;136970;-39
2022/03/28 02:20:21;;;;;;;;;;;4.90;99.90;;;3.26;100.00;102127.69;2571668;30;137243;-41
2022/03/28 02:22:49;;;;;;;;;;;4.90;99.90;;;3.20;100.00;102123.72;2570066;30;137904;-39
2022/03/28 02:25:17;;;;;;;;;;;4.90;99.90;;;3.19;100.00;102124.69;2570187;30;138236;-39
2022/03/28 02:27:44;;;;;;;;;;;4.80;99.90;;;3.19;100.00;102123.81;2570798;30;137764;-40
2022/03/28 02:30:14;;;;;;;;;;;4.80;99.90;;;3.16;100.00;102124.94;2566546;30;137737;-40
2022/03/28 02:32:42;;;;;;;;;;;4.80;99.90;;;3.12;100.00;102120.78;2568469;30;137616;-39
2022/03/28 02:35:10;;;;;;;;;;;4.70;99.90;;;3.07;100.00;102118.50;2570443;30;139081;-40
2022/03/28 02:37:37;;;;;;;;;;;4.70;99.90;;;3.06;100.00;102124.03;2569232;30;136991;-40
2022/03/28 02:40:05;;;;;;;;;;;4.70;99.90;;;3.01;100.00;102114.50;2569936;30;137285;-39
2022/03/28 02:42:33;;;;;;;;;;;4.70;99.90;;;2.98;100.00;102109.34;2570692;30;137038;-39
2022/03/28 02:45:01;;;;;;;;;;;4.60;99.90;;;2.94;100.00;102105.22;2569401;30;138242;-39
2022/03/28 02:47:28;;;;;;;;;;;4.60;99.90;;;2.94;100.00;102107.91;2569370;30;136925;-39
2022/03/28 02:49:55;;;;;;;;;;;4.60;99.90;;;2.97;100.00;102098.69;2568603;30;139028;-39
2022/03/28 02:52:23;;;;;;;;;;;4.60;99.90;;;2.93;100.00;102090.03;2567279;30;136948;-39
2022/03/28 02:54:50;;;;;;;;;;;4.60;99.90;;;2.96;100.00;102094.28;2569703;30;137287;-40
2022/03/28 02:57:18;;;;;;;;;;;4.60;99.90;;;2.95;100.00;102085.34;2568228;30;137842;-40
2022/03/28 02:59:45;;;;;;;;;;;4.60;99.90;;;2.94;100.00;102085.47;2568769;30;138204;-39
2022/03/28 03:02:13;;;;;;;;;;;4.60;99.90;;;2.92;100.00;102082.94;2568769;30;137399;-41
2022/03/28 03:04:40;;;;;;;;;;;4.60;99.90;;;2.93;100.00;102087.34;2569781;30;137039;-39
2022/03/28 03:07:08;;;;;;;;;;;4.60;99.90;;;2.89;100.00;102077.78;2570931;30;136942;-39
2022/03/28 03:09:36;;;;;;;;;;;4.50;99.90;;;2.88;100.00;102070.66;2569580;30;138961;-39
2022/03/28 03:12:03;;;;;;;;;;;4.50;99.90;;;2.86;100.00;102072.66;2569061;30;137086;-39
2022/03/28 03:14:31;;;;;;;;;;;4.50;99.90;;;2.83;100.00;102067.50;2569616;30;139076;-40
2022/03/28 03:16:59;;;;;;;;;;;4.50;99.90;;;2.81;100.00;102067.66;2569151;30;137199;-39
2022/03/28 03:19:26;;;;;;;;;;;4.50;99.90;;;2.77;100.00;102062.66;2567624;30;138088;-41
2022/03/28 03:21:53;;;;;;;;;;;4.50;99.90;;;2.75;100.00;102064.63;2567203;30;136782;-39
2022/03/28 03:24:21;;;;;;;;;;;4.40;99.90;;;2.71;100.00;102059.50;2569497;30;137222;-39
2022/03/28 03:26:48;;;;;;;;;;;4.40;99.90;;;2.67;100.00;102049.09;2571007;30;137158;-39
2022/03/28 03:29:16;;;;;;;;;;;4.40;99.90;;;2.71;100.00;102051.41;2570092;30;137475;-40
2022/03/28 03:31:43;;;;;;;;;;;4.40;99.90;;;2.71;100.00;102056.81;2569645;30;138109;-39
2022/03/28 03:34:10;;;;;;;;;;;4.40;99.90;;;2.65;100.00;102053.78;2567748;30;137782;-39
2022/03/28 03:36:38;;;;;;;;;;;4.30;99.90;;;2.62;100.00;102057.56;2569805;30;137062;-40
2022/03/28 03:39:05;;;;;;;;;;;4.30;99.90;;;2.61;100.00;102052.31;2570275;30;139417;-40
2022/03/28 03:41:33;;;;;;;;;;;4.30;99.90;;;2.55;100.00;102059.94;2567919;30;137874;-39
2022/03/28 03:44:00;;;;;;;;;;;4.20;99.90;;;2.53;100.00;102069.13;2571115;30;138082;-40
2022/03/28 03:46:28;;;;;;;;;;;4.20;99.90;;;2.48;100.00;102066.81;2569873;30;137047;-40
2022/03/28 03:49:01;;;;;;;;;;;4.20;99.90;;;2.44;100.00;102062.66;2569542;30;137150;-39
2022/03/28 03:51:29;;;;;;;;;;;4.10;99.90;;;2.43;100.00;102052.88;2569940;30;137715;-39
2022/03/28 03:53:56;;;;;;;;;;;4.10;99.90;;;2.41;100.00;102053.03;2570809;30;138064;-39
2022/03/28 03:56:24;;;;;;;;;;;4.10;99.90;;;2.39;100.00;102046.03;2567660;30;137521;-39
2022/03/28 03:58:51;;;;;;;;;;;4.10;99.90;;;2.38;100.00;102044.34;2569273;30;136980;-40
2022/03/28 04:01:20;;;;;;;;;;;4.00;99.90;;;2.35;100.00;102045.44;2570384;30;137212;-39
2022/03/28 04:03:47;;;;;;;;;;;4.00;99.90;;;2.33;100.00;102049.25;2569403;30;139065;-40
2022/03/28 04:06:15;;;;;;;;;;;4.00;99.90;;;2.30;100.00;102039.59;2566449;30;137111;-39
2022/03/28 04:08:43;;;;;;;;;;;4.00;99.90;;;2.32;100.00;102039.47;2570058;30;138320;-39
2022/03/28 04:11:11;;;;;;;;;;;4.00;99.90;;;2.29;100.00;102036.06;2567915;30;137634;-40
2022/03/28 04:13:38;;;;;;;;;;;3.90;99.90;;;2.26;100.00;102038.13;2569481;30;138256;-39
2022/03/28 04:16:05;;;;;;;;;;;3.90;99.90;;;2.20;100.00;102033.25;2566407;30;137013;-39
2022/03/28 04:18:35;;;;;;;;;;;3.90;99.90;;;2.18;100.00;102036.06;2570347;30;137249;-39
2022/03/28 04:21:02;;;;;;;;;;;3.80;99.90;;;2.17;100.00;102034.34;2570725;30;137631;-40
2022/03/28 04:23:30;;;;;;;;;;;3.80;99.90;;;2.14;100.00;102030.09;2569037;30;138242;-39
2022/03/28 04:25:57;;;;;;;;;;;3.80;99.90;;;2.13;100.00;102033.78;2570586;30;137782;-39
2022/03/28 04:28:25;;;;;;;;;;;3.80;99.90;;;2.12;100.00;102033.91;2569003;30;138298;-39
2022/03/28 04:30:52;;;;;;;;;;;3.80;99.90;;;2.12;100.00;102033.91;2566457;30;137201;-39
2022/03/28 04:33:20;;;;;;;;;;;3.80;99.90;;;2.08;100.00;102025.22;2571519;30;138599;-39
2022/03/28 04:35:48;;;;;;;;;;;3.80;99.90;;;2.05;100.00;102030.84;2569421;30;137174;-40
2022/03/28 04:38:15;;;;;;;;;;;3.70;99.90;;;2.06;100.00;102029.88;2569982;30;138459;-39
2022/03/28 04:40:42;;;;;;;;;;;3.70;99.90;;;2.02;100.00;102023.03;2568897;30;137061;-39
2022/03/28 04:43:10;;;;;;;;;;;3.70;99.90;;;2.04;100.00;102021.06;2566271;30;138456;-39
2022/03/28 04:45:38;;;;;;;;;;;3.70;99.90;;;2.01;100.00;102018.63;2569937;30;136938;-40
2022/03/28 04:48:05;;;;;;;;;;;3.70;99.90;;;1.96;100.00;102021.69;2569674;30;138412;-39
2022/03/28 04:50:33;;;;;;;;;;;3.70;99.90;;;1.96;100.00;102024.38;2570375;30;136982;-39
2022/03/28 04:53:00;;;;;;;;;;;3.70;99.90;;;1.92;100.00;102016.69;2570165;30;138367;-39
2022/03/28 04:55:31;;;;;;;;;;;3.60;99.90;;;1.92;100.00;102022.94;2567912;30;138291;-40
2022/03/28 04:57:59;;;;;;;;;;;3.60;99.90;;;1.88;100.00;102023.31;2571266;30;138369;-39
2022/03/28 05:00:26;;;;;;;;;;;3.60;99.90;;;1.83;100.00;102027.22;2569813;30;137277;-39
2022/03/28 05:02:54;;;;;;;;;;;3.50;99.90;;;1.81;100.00;102026.50;2568274;30;138197;-39
2022/03/28 05:05:21;;;;;;;;;;;3.50;99.90;;;1.81;100.00;102036.41;2571642;30;138050;-39
2022/03/28 05:07:49;;;;;;;;;;;3.50;99.90;;;1.77;100.00;102033.13;2571010;30;138154;-39
2022/03/28 05:10:17;;;;;;;;;;;3.40;99.90;;;1.75;100.00;102027.00;2568603;30;137090;-39
2022/03/28 05:12:45;;;;;;;;;;;3.40;99.90;;;1.71;100.00;102028.22;2569244;30;138184;-39
2022/03/28 05:15:13;;;;;;;;;;;3.40;99.90;;;1.71;100.00;102030.94;2570519;30;137010;-39
2022/03/28 05:17:40;;;;;;;;;;;3.40;99.90;;;1.70;100.00;102027.38;2569565;30;138965;-39
2022/03/28 05:20:09;;;;;;;;;;;3.40;99.90;;;1.69;100.00;102019.44;2569845;30;137128;-39
2022/03/28 05:22:40;;;;;;;;;;;3.40;99.90;;;1.73;100.00;102026.28;2569125;30;138698;-39
2022/03/28 05:25:08;;;;;;;;;;;3.40;99.90;;;1.72;100.00;102032.63;2568438;30;137278;-39
2022/03/28 05:27:46;;;;;;;;;;;3.40;99.90;;;1.74;100.00;102017.22;2568656;30;139465;-39
2022/03/28 05:30:19;;;;;;;;;;;3.40;99.90;;;1.79;100.00;102023.06;2569209;30;137685;-39
2022/03/28 05:32:46;;;;;;;;;;;3.40;99.90;;;1.78;100.00;102012.44;2568156;30;139659;-40
2022/03/28 05:35:14;;;;;;;;;;;3.40;99.90;;;1.77;100.00;102008.88;2570013;30;137163;-39
2022/03/28 05:37:42;;;;;;;;;;;3.40;99.90;;;1.75;100.00;102013.53;2571738;30;138507;-39
2022/03/28 05:40:11;;;;;;;;;;;3.50;99.90;;;1.82;100.00;102013.91;2570255;30;137434;-39
2022/03/28 05:42:38;;;;;;;;;;;3.50;99.90;;;1.83;100.00;102016.44;2568573;30;138199;-39
2022/03/28 05:45:08;;;;;;;;;;;3.50;99.90;;;1.82;100.00;102009.38;2568927;30;137138;-39
2022/03/28 05:47:35;;;;;;;;;;;3.50;99.90;;;1.84;100.00;102017.31;2568953;30;138994;-39
2022/03/28 05:50:03;;;;;;;;;;;3.50;99.90;;;1.88;100.00;102012.56;2569034;30;137460;-39
2022/03/28 05:52:30;;;;;;;;;;;3.50;99.90;;;1.91;100.00;102015.00;2569718;30;138454;-39
2022/03/28 05:54:58;;;;;;;;;;;3.50;99.90;;;1.95;100.00;102013.75;2570526;30;137656;-39
2022/03/28 05:57:26;;;;;;;;;;;3.60;99.90;;;2.00;100.00;102016.91;2569291;30;139553;-40
2022/03/28 05:59:57;;;;;;;;;;;3.60;99.90;;;2.06;100.00;102019.09;2572361;30;137219;-39
2022/03/28 06:02:25;;;;;;;;;;;3.70;99.90;;;2.12;100.00;102007.84;2569905;30;138115;-40
2022/03/28 06:04:52;;;;;;;;;;;3.70;99.90;;;2.19;100.00;102013.53;2569899;30;136571;-40
2022/03/28 06:07:20;;;;;;;;;;;3.80;99.90;;;2.25;100.00;102012.19;2568837;30;139340;-40
2022/03/28 06:09:47;;;;;;;;;;;3.80;99.90;;;2.32;100.00;102015.22;2571505;30;136864;-39
2022/03/28 06:12:15;;;;;;;;;;;3.90;99.90;;;2.39;100.00;102009.19;2572107;30;139418;-40
2022/03/28 06:14:42;;;;;;;;;;;3.90;99.90;;;2.52;100.00;102016.22;2568569;30;136848;-40
2022/03/28 06:17:11;;;;;;;;;;;4.10;99.90;;;2.69;100.00;102010.28;2569571;30;139240;-39
2022/03/28 06:19:39;;;;;;;;;;;4.20;99.90;;;2.79;100.00;102001.38;2570378;30;136892;-40
2022/03/28 06:22:07;;;;;;;;;;;4.30;99.90;;;2.86;100.00;102003.41;2566663;30;138708;-39
2022/03/28 06:24:35;;;;;;;;;;;4.40;99.90;;;2.96;100.00;102006.19;2566229;30;137193;-39
2022/03/28 06:27:02;;;;;;;;;;;4.40;99.90;;;3.08;100.00;102001.56;2569980;30;138560;-40
2022/03/28 06:29:30;;;;;;;;;;;4.60;99.90;;;3.17;100.00;102006.13;2569172;30;137973;-39
2022/03/28 06:31:57;;;;;;;;;;;4.60;99.90;;;3.26;100.00;101993.69;2569144;30;139207;-40
2022/03/28 06:34:25;;;;;;;;;;;4.70;99.90;;;3.41;100.00;101999.56;2570654;30;136957;-40
2022/03/28 06:36:52;;;;;;;;;;;4.90;99.90;;;3.59;100.00;102001.63;2568009;30;139406;-39
2022/03/28 06:39:20;;;;;;;;;;;5.00;99.90;;;3.76;100.00;102000.09;2569600;30;136630;-39
2022/03/28 06:41:47;;;;;;;;;;;5.20;99.90;;;3.95;100.00;102006.50;2569658;30;138270;-40
2022/03/28 06:44:17;;;;;;;;;;;5.30;99.90;;;4.05;100.00;101995.72;2569657;30;136815;-40
2022/03/28 06:46:45;;;;;;;;;;;5.40;99.90;;;4.23;100.00;101995.88;2569754;30;138415;-40
2022/03/28 06:49:13;;;;;;;;;;;5.60;99.90;;;4.41;100.00;101996.03;2569026;30;136725;-40
2022/03/28 06:51:40;;;;;;;;;;;5.70;99.90;;;4.61;100.00;101996.88;2570053;30;138151;-39
2022/03/28 06:54:08;;;;;;;;;;;5.90;99.90;;;4.85;100.00;101999.09;2570622;30;137170;-40
2022/03/28 06:56:36;;;;;;;;;;;6.20;99.90;;;5.06;100.00;101986.41;2570583;30;137268;-40
2022/03/28 06:59:04;;;;;;;;;;;6.40;99.90;;;5.24;100.00;101987.31;2571708;30;137998;-40
2022/03/28 07:01:31;;;;;;;;;;;6.50;99.90;;;5.46;100.00;101990.63;2568897;30;137742;-40
2022/03/28 07:03:59;;;;;;;;;;;6.70;99.90;;;5.65;100.00;101988.81;2569896;30;137172;-39
2022/03/28 07:06:27;;;;;;;;;;;6.90;99.90;;;5.83;100.00;101983.44;2570069;30;137247;-40
2022/03/28 07:08:55;;;;;;;;;;;7.00;99.90;;;6.00;100.00;101981.75;2569927;30;138250;-40
2022/03/28 07:11:22;;;;;;;;;;;7.20;99.90;;;6.19;100.00;101983.50;2569512;30;137397;-40
2022/03/28 07:13:49;;;;;;;;;;;7.40;99.90;;;6.39;100.00;101986.03;2569485;30;136726;-40
2022/03/28 07:16:17;;;;;;;;;;;7.50;99.90;;;6.51;100.00;101967.66;2568979;30;138263;-41
2022/03/28 07:18:45;;;;;;;;;;;7.70;99.90;;;6.78;100.00;101979.38;2568996;30;136865;-41
2022/03/28 07:21:13;;;;;;;;;;;7.90;99.90;;;7.04;100.00;101982.94;2567762;30;137137;-41
2022/03/28 07:23:41;;;;;;;;;;;8.10;99.90;;;7.27;100.00;101987.81;2568470;30;137814;-41
2022/03/28 07:26:08;;;;;;;;;;;8.30;99.90;;;7.50;100.00;101976.38;2567985;30;138416;-41
2022/03/28 07:28:39;;;;;;;;;;;8.60;99.90;;;7.68;100.00;101981.72;2566409;30;137303;-41
2022/03/28 07:31:09;;;;;;;;;;;8.70;99.90;;;7.88;100.00;101970.56;2568783;30;140390;-41
2022/03/28 07:33:41;;;;;;;;;;;8.90;99.90;;;8.07;100.00;101975.66;2567473;30;137341;-41
2022/03/28 07:36:09;;;;;;;;;;;9.10;99.90;;;8.26;100.00;101970.13;2568828;30;137951;-41
2022/03/28 07:38:37;;;;;;;;;;;9.30;99.90;;;8.40;100.00;101972.13;2567998;30;137860;-41
2022/03/28 07:41:05;;;;;;;;;;;9.40;99.90;;;8.65;100.00;101977.59;2566158;30;138168;-41
2022/03/28 07:43:33;;;;;;;;;;;9.60;99.90;;;8.85;100.00;101964.47;2569396;30;137191;-41
2022/03/28 07:46:00;;;;;;;;;;;9.80;99.90;;;9.04;100.00;101968.69;2568473;30;138152;-42
2022/03/28 07:48:27;;;;;;;;;;;10.00;99.90;;;9.21;100.00;101957.75;2568723;30;137082;-41
2022/03/28 07:50:55;;;;;;;;;;;10.20;99.90;;;9.36;100.00;101952.41;2568088;30;139031;-41
2022/03/28 07:53:23;;;;;;;;;;;10.40;99.90;;;9.50;100.00;101958.97;2566709;30;137066;-41
2022/03/28 07:55:50;;;;;;;;;;;10.50;99.90;;;9.64;100.00;101958.25;2567880;30;139169;-41
2022/03/28 07:58:17;;;;;;;;;;;10.70;99.90;;;9.82;100.00;101954.41;2568758;30;138099;-41
2022/03/28 08:00:47;;;;;;;;;;;10.80;99.90;;;9.99;100.00;101954.28;2568169;30;139137;-42
2022/03/28 08:03:14;;;;;;;;;;;11.00;99.90;;;10.13;100.00;101949.91;2567848;30;137103;-41
2022/03/28 08:05:41;;;;;;;;;;;11.10;99.90;;;10.29;100.00;101943.47;2567918;30;138983;-42
2022/03/28 08:08:09;;;;;;;;;;;11.30;99.90;;;10.43;98.36;101945.44;2567752;30;137013;-41
2022/03/28 08:10:36;;;;;;;;;;;11.40;99.90;;;10.61;99.93;101939.66;2566959;30;138527;-41
2022/03/28 08:13:04;;;;;;;;;;;11.60;99.90;;;10.72;95.99;101942.94;2568491;30;136912;-41
2022/03/28 08:15:32;;;;;;;;;;;11.70;99.90;;;10.83;95.23;101944.38;2568314;30;137148;-42
2022/03/28 08:17:59;;;;;;;;;;;11.80;99.90;;;10.94;95.13;101941.19;2568345;30;137213;-41
2022/03/28 08:20:27;;;;;;;;;;;11.90;99.90;;;11.03;93.31;101940.06;2565914;30;138560;-41
2022/03/28 08:22:54;;;;;;;;;;;12.10;99.90;;;11.18;92.79;101941.97;2568812;30;137045;-41
2022/03/28 08:25:22;;;;;;;;;;;12.20;99.90;;;11.27;91.09;101940.81;2568612;30;138487;-41
2022/03/28 08:27:50;;;;;;;;;;;12.30;99.90;;;11.39;92.25;101932.13;2569700;30;137408;-42
2022/03/28 08:30:18;;;;;;;;;;;12.40;99.90;;;11.50;91.17;101929.72;2569647;30;137284;-41
2022/03/28 08:32:48;;;;;;;;;;;12.50;99.90;;;11.61;89.88;101925.66;2568229;30;137000;-41
2022/03/28 08:35:16;;;;;;;;;;;12.60;99.90;;;11.71;89.73;101919.06;2566582;30;138210;-41
2022/03/28 08:37:43;;;;;;;;;;;12.70;99.90;;;11.76;87.83;101922.88;2569082;30;137325;-41
2022/03/28 08:40:15;;;;;;;;;;;12.80;99.90;;;11.86;87.19;101925.31;2566808;30;137289;-42
2022/03/28 08:42:44;;;;;;;;;;;12.90;99.90;;;11.94;87.06;101916.13;2568393;30;136799;-41
2022/03/28 08:45:14;;;;;;;;;;;12.90;99.90;;;12.11;87.64;101919.47;2567076;30;138861;-41
2022/03/28 08:47:47;;;;;;;;;;;13.10;99.90;;;12.28;87.17;101916.47;2567769;30;137086;-41
2022/03/28 08:50:39;;;;;;;;;;;13.20;99.90;;;12.42;85.76;101912.78;2567166;30;138250;-43
2022/03/28 08:53:06;;;;;;;;;;;13.40;99.90;;;12.51;84.50;101914.38;2568455;30;136855;-41
2022/03/28 08:55:34;;;;;;;;;;;13.40;99.90;;;12.62;83.37;101912.09;2567364;30;138427;-41
2022/03/28 08:58:02;;;;;;;;;;;13.60;99.90;;;12.70;82.66;101902.91;2567192;30;136628;-41
2022/03/28 09:00:29;;;;;;;;;;;13.70;99.90;;;12.82;82.92;101900.44;2567875;30;139167;-41
2022/03/28 09:02:58;;;;;;;;;;;13.80;99.90;;;12.91;80.98;101897.34;2567533;30;137001;-42
2022/03/28 09:05:34;;;;;;;;;;;13.90;99.90;;;13.04;80.95;101901.19;2568754;30;137078;-42
2022/03/28 09:08:04;;;;;;;;;;;14.00;99.90;;;13.19;81.67;101901.06;2568440;30;136735;-41
2022/03/28 09:10:36;;;;;;;;;;;14.10;99.90;;;13.36;82.81;101904.28;2568593;30;138232;-41
2022/03/28 09:13:11;;;;;;;;;;;14.20;99.90;;;13.49;80.42;101903.53;2569975;30;137178;-41
2022/03/28 09:15:55;;;;;;;;;;;14.30;99.90;;;13.58;77.81;101902.31;2568927;30;137338;-42
2022/03/28 09:18:24;;;;;;;;;;;14.50;99.90;;;13.65;77.57;101892.19;2568032;30;136985;-41
2022/03/28 09:21:06;;;;;;;;;;;14.60;99.90;;;13.72;77.51;101896.84;2568365;30;138352;-41
2022/03/28 09:23:39;;;;;;;;;;;14.70;99.90;;;13.86;76.29;101897.72;2568925;30;137367;-42
2022/03/28 09:26:20;;;;;;;;;;;14.80;99.90;;;13.98;75.77;101890.56;2567893;30;138540;-41
2022/03/28 09:28:53;;;;;;;;;;;14.90;99.90;;;14.00;74.56;101882.13;2567959;30;136914;-41
2022/03/28 09:31:25;;;;;;;;;;;15.00;99.90;;;14.08;73.45;101880.00;2567898;30;137285;-42
2022/03/28 09:34:06;;;;;;;;;;;15.10;99.90;;;14.21;74.29;101872.84;2568022;30;137213;-41
2022/03/28 09:36:51;;;;;;;;;;;15.10;99.90;;;14.34;73.34;101864.59;2569273;30;138378;-42
2022/03/28 09:39:27;;;;;;;;;;;15.30;99.90;;;14.48;71.69;101870.91;2568271;30;137067;-41
2022/03/28 09:42:10;;;;;;;;;;;15.30;99.90;;;14.62;72.04;101865.41;2568687;30;138777;-41
2022/03/28 09:44:43;;;;;;;;;;;15.50;99.90;;;14.65;71.02;101852.09;2568388;30;137940;-41
2022/03/28 09:47:14;;;;;;;;;;;15.60;99.90;;;14.75;71.78;101859.09;2568209;30;138401;-41
2022/03/28 09:49:43;;;;;;;;;;;15.70;99.90;;;14.90;70.91;101865.16;2568382;30;137074;-41
2022/03/28 09:52:19;;;;;;;;;;;15.80;99.90;;;14.98;69.32;101865.97;2566459;30;137640;-39
2022/03/28 09:54:52;;;;;;;;;;;15.90;99.90;;;15.07;70.40;101860.00;2567278;30;136709;-42
2022/03/28 09:57:32;;;;;;;;;;;16.00;99.90;;;15.15;69.16;101861.69;2566374;30;138093;-41
2022/03/28 10:00:12;;;;;;;;;;;16.10;99.90;;;15.27;69.91;101856.34;2568901;30;138254;-41
2022/03/28 10:02:40;;;;;;;;;;;16.20;99.90;;;15.33;71.15;101854.63;2568370;30;137218;-40
2022/03/28 10:05:08;;;;;;;;;;;16.20;99.90;;;15.42;69.62;101855.22;2566990;30;137385;-41
2022/03/28 10:07:37;;;;;;;;;;;16.30;99.90;;;15.56;70.32;101851.31;2569703;30;138345;-39
2022/03/28 10:10:06;;;;;;;;;;;16.40;99.90;;;15.58;69.56;101849.19;2567509;30;137586;-39
2022/03/28 10:12:34;;;;;;;;;;;16.50;99.90;;;15.68;69.73;101857.81;2567122;30;137735;-39
2022/03/28 10:15:03;;;;;;;;;;;16.60;99.90;;;15.74;69.52;101847.81;2569063;30;137076;-40
2022/03/28 10:17:31;;;;;;;;;;;16.70;99.90;;;15.86;67.59;101847.09;2569325;30;137892;-41
2022/03/28 10:20:00;;;;;;;;;;;16.80;99.90;;;15.88;65.81;101844.97;2569578;30;137007;-42
2022/03/28 10:22:47;;;;;;;;;;;16.80;99.90;;;15.98;64.10;101841.75;2565523;30;139026;-41
2022/03/28 10:25:19;;;;;;;;;;;16.90;99.90;;;15.97;65.59;101832.66;2568309;30;136617;-41
2022/03/28 10:27:47;;;;;;;;;;;17.00;99.90;;;16.13;65.46;101830.41;2568566;30;137923;-41
2022/03/28 10:30:27;;;;;;;;;;;17.00;99.90;;;16.21;65.30;101825.47;2569850;30;137137;-39
2022/03/28 10:33:08;;;;;;;;;;;17.10;99.90;;;16.34;64.46;101829.13;2569866;30;138235;-41
2022/03/28 10:35:36;;;;;;;;;;;17.20;99.90;;;16.47;66.57;101829.03;2568385;30;137275;-41
2022/03/28 10:38:19;;;;;;;;;;;17.30;99.90;;;16.55;64.92;101819.59;2570021;30;138410;-41
2022/03/28 10:40:55;;;;;;;;;;;17.40;99.90;;;16.63;65.63;101816.56;2569440;30;137141;-41
2022/03/28 10:43:26;;;;;;;;;;;17.50;99.90;;;16.67;64.80;101814.16;2567461;30;138243;-41
2022/03/28 10:45:57;;;;;;;;;;;17.50;99.90;;;16.80;64.34;101810.41;2568924;30;137114;-41
2022/03/28 10:48:39;;;;;;;;;;;17.60;99.90;;;16.66;64.65;101804.22;2566620;30;139538;-41
2022/03/28 10:51:15;;;;;;;;;;;17.60;99.90;;;16.69;62.54;101798.25;2567660;30;137246;-41
2022/03/28 10:53:47;;;;;;;;;;;17.60;99.60;;;16.70;62.83;101799.94;2566970;30;138328;-41
2022/03/28 10:56:40;;;;;;;;;;;17.70;99.40;;;16.78;62.79;101801.53;2567276;30;137819;-42
2022/03/28 10:59:09;;;;;;;;;;;17.70;99.10;;;16.66;62.17;101793.19;2568797;30;137763;-41
2022/03/28 11:01:38;;;;;;;;;;;17.70;98.60;;;16.89;62.45;101788.91;2568994;30;136721;-43
2022/03/28 11:04:05;;;;;;;;;;;17.80;98.90;;;16.93;60.85;101790.97;2567791;30;137917;-42
2022/03/28 11:07:03;;;;;;;;;;;17.90;98.30;;;17.01;62.08;101784.34;2564433;30;137332;-41
2022/03/28 11:09:39;;;;;;;;;;;17.90;98.60;;;17.11;61.99;101781.84;2567939;30;139223;-41
2022/03/28 11:12:22;;;;;;;;;;;18.00;99.30;;;17.10;60.69;101774.66;2565331;30;137472;-41
2022/03/28 11:14:49;;;;;;;;;;;18.10;97.40;;;17.13;62.14;101765.09;2569392;30;139224;-43
2022/03/28 11:17:24;;;;;;;;;;;18.10;98.60;;;17.33;61.71;101764.78;2570135;30;137062;-41